Time;durP1;ratioP1;P1;durP2;ratioP2;P2;SDS_P1;SDS_P2;PMS_P1;PMS_P2;Temp;Humidity;BMP_temperature;BMP_pressure;BME280_temperature;BME280_humidity;BME280_pressure;Samples;Min_cycle;Max_cycle;Signal;HPM_P1;HPM_P2
2023/02/16 00:01:26;;;;;;;20.17;6.45;;;;;;;2.39;68.96;101806.91;5009279;28;20045;-72
2023/02/16 00:03:54;;;;;;;23.27;7.43;;;;;;;2.39;69.26;101811.16;5016923;28;20045;-73
2023/02/16 00:06:23;;;;;;;20.13;5.78;;;;;;;2.40;68.50;101808.66;5028401;28;20497;-74
2023/02/16 00:08:52;;;;;;;20.23;8.38;;;;;;;2.41;68.43;101809.53;5028767;28;20053;-74
2023/02/16 00:14:10;;;;;;;14.98;6.28;;;;;;;2.33;69.09;101786.06;5029476;28;20180;-73
2023/02/16 00:16:37;;;;;;;16.55;5.78;;;;;;;2.31;69.06;101795.47;5028748;28;20041;-74
2023/02/16 00:19:16;;;;;;;17.85;5.38;;;;;;;2.38;69.07;101799.13;5029209;28;20417;-74
2023/02/16 00:21:44;;;;;;;17.27;5.57;;;;;;;2.40;69.36;101795.75;5028068;28;20054;-73
2023/02/16 00:24:11;;;;;;;17.02;5.97;;;;;;;2.40;68.88;101787.16;4998867;28;20042;-74
2023/02/16 00:26:40;;;;;;;17.58;5.93;;;;;;;2.39;69.03;101791.44;5027863;28;20045;-73
2023/02/16 00:29:07;;;;;;;23.35;6.13;;;;;;;2.39;69.18;101786.28;5030151;28;20412;-73
2023/02/16 00:31:34;;;;;;;18.88;6.03;;;;;;;2.36;68.70;101781.03;5026302;28;20866;-74
2023/02/16 00:34:18;;;;;;;18.95;6.28;;;;;;;2.39;69.04;101786.28;5028325;28;20515;-74
2023/02/16 00:36:46;;;;;;;18.63;6.03;;;;;;;2.37;69.39;101781.91;5027963;28;20045;-74
2023/02/16 00:39:13;;;;;;;16.08;6.47;;;;;;;2.39;69.40;101785.38;5028571;28;20045;-73
2023/02/16 00:41:52;;;;;;;16.75;5.82;;;;;;;2.40;69.00;101793.19;5029300;28;20052;-74
2023/02/16 00:44:21;;;;;;;18.48;5.88;;;;;;;2.33;68.99;101791.22;5027257;28;20046;-74
2023/02/16 00:46:48;;;;;;;15.77;5.05;;;;;;;2.40;68.75;101782.88;5029154;28;20051;-74
2023/02/16 00:49:16;;;;;;;15.60;5.07;;;;;;;2.39;69.17;101781.13;5028273;28;20053;-75
2023/02/16 00:51:43;;;;;;;15.90;5.40;;;;;;;2.40;69.21;101780.28;5029548;28;20050;-74
2023/02/16 00:54:12;;;;;;;13.55;5.22;;;;;;;2.41;69.59;101776.88;5028147;28;20048;-73
2023/02/16 00:56:40;;;;;;;22.00;6.25;;;;;;;2.40;69.64;101775.13;5027766;28;20057;-74
2023/02/16 00:59:12;;;;;;;19.02;6.55;;;;;;;2.41;68.87;101769.13;5025712;28;20053;-73
2023/02/16 01:01:39;;;;;;;17.02;6.07;;;;;;;2.42;68.91;101768.34;5028997;28;20054;-74
2023/02/16 01:04:11;;;;;;;14.13;5.18;;;;;;;2.41;69.50;101769.13;5030758;28;20132;-73
2023/02/16 01:12:14;;;;;;;17.45;6.28;;;;;;;2.41;69.72;101760.53;5033765;28;20053;-74
2023/02/16 01:14:41;;;;;;;17.63;6.18;;;;;;;2.40;69.77;101751.94;5029024;28;20490;-73
2023/02/16 01:17:07;;;;;;;14.80;5.35;;;;;;;2.38;69.52;101748.41;5030896;28;20054;-73
2023/02/16 01:19:34;;;;;;;18.48;6.18;;;;;;;2.40;69.58;101746.78;5034081;28;20081;-74
2023/02/16 01:22:01;;;;;;;14.50;5.50;;;;;;;2.42;69.77;101745.13;5031418;28;20052;-73
2023/02/16 01:24:29;;;;;;;11.32;4.15;;;;;;;2.43;69.62;101748.56;5033197;28;20151;-74
2023/02/16 01:26:56;;;;;;;18.33;5.63;;;;;;;2.43;69.19;101744.28;5030089;28;20053;-74
2023/02/16 01:29:23;;;;;;;15.38;4.75;;;;;;;2.43;69.73;101749.44;5032470;28;20060;-74
2023/02/16 01:31:50;;;;;;;14.30;5.43;;;;;;;2.43;69.46;101735.69;5028431;28;20053;-74
2023/02/16 01:34:17;;;;;;;17.10;6.63;;;;;;;2.43;69.21;101736.53;5028293;28;20045;-74
2023/02/16 01:36:46;;;;;;;15.65;4.15;;;;;;;2.37;69.34;101728.63;5029266;28;20056;-74
2023/02/16 01:39:15;;;;;;;15.32;5.82;;;;;;;2.41;69.43;101720.16;5026565;28;20055;-74
2023/02/16 01:42:04;;;;;;;19.83;6.93;;;;;;;2.40;69.47;101720.13;5027206;28;20049;-74
2023/02/16 01:44:36;;;;;;;15.00;5.55;;;;;;;2.41;69.60;101727.00;5029292;28;20048;-74
2023/02/16 01:47:10;;;;;;;14.18;4.45;;;;;;;2.43;69.76;101727.94;5032794;28;20711;-74
2023/02/16 01:49:37;;;;;;;12.63;4.18;;;;;;;2.42;69.69;101721.91;5030481;28;20061;-74
2023/02/16 01:52:12;;;;;;;15.40;5.65;;;;;;;2.44;69.53;101717.66;5031862;28;20482;-74
2023/02/16 01:54:43;;;;;;;14.65;5.40;;;;;;;2.44;69.55;101707.34;5030976;28;20417;-73
2023/02/16 01:57:27;;;;;;;16.38;5.55;;;;;;;2.42;69.76;101698.72;5030129;28;20481;-74
2023/02/16 02:00:17;;;;;;;13.43;5.32;;;;;;;2.45;69.57;101700.50;5027611;28;20409;-74
2023/02/16 02:02:47;;;;;;;18.33;4.40;;;;;;;2.44;69.99;101697.03;5026532;28;20057;-73
2023/02/16 02:05:36;;;;;;;13.57;4.47;;;;;;;2.45;69.88;101688.47;5028970;28;20050;-73
2023/02/16 02:08:21;;;;;;;16.02;5.40;;;;;;;2.45;69.46;101687.59;5031291;28;20041;-74
2023/02/16 02:10:59;;;;;;;15.23;5.05;;;;;;;2.45;69.71;101692.78;5029306;28;20041;-74
2023/02/16 02:13:31;;;;;;;19.10;5.30;;;;;;;2.44;69.26;101686.72;5029777;28;20053;-74
2023/02/16 02:16:00;;;;;;;14.95;5.40;;;;;;;2.40;69.28;101677.16;5029416;28;20049;-74
2023/02/16 02:18:27;;;;;;;16.40;5.53;;;;;;;2.46;69.46;101673.88;5030346;28;20409;-74
2023/02/16 02:24:21;;;;;;;13.75;3.88;;;;;;;2.42;69.74;101665.19;5030518;28;20056;-73
2023/02/16 02:27:13;;;;;;;16.58;4.82;;;;;;;2.43;69.94;101656.59;5027647;28;20524;-73
2023/02/16 02:30:04;;;;;;;17.08;5.45;;;;;;;2.39;69.47;101646.16;5029609;28;20046;-74
2023/02/16 02:32:52;;;;;;;17.25;5.20;;;;;;;2.39;69.35;101653.88;5025277;28;20052;-73
2023/02/16 02:35:29;;;;;;;14.93;4.88;;;;;;;2.45;69.97;101647.22;5029491;28;20060;-74
2023/02/16 02:38:02;;;;;;;13.18;5.05;;;;;;;2.46;69.97;101653.25;5029791;28;20056;-74
2023/02/16 02:40:41;;;;;;;17.45;5.65;;;;;;;2.47;69.90;101652.41;5030799;28;20056;-74
2023/02/16 02:43:16;;;;;;;14.85;4.47;;;;;;;2.46;69.80;101646.38;5029564;28;20053;-74
2023/02/16 02:45:47;;;;;;;13.82;4.65;;;;;;;2.38;69.35;101624.66;5030433;28;20579;-74
2023/02/16 02:48:14;;;;;;;12.50;4.13;;;;;;;2.47;69.70;101639.50;5029360;28;20114;-73
2023/02/16 02:51:27;;;;;;;14.57;5.03;;;;;;;2.48;70.08;101639.56;5031487;28;20051;-74
2023/02/16 02:53:36;;;;;;;13.50;5.40;;;;;;;2.46;69.51;101630.91;5030923;28;20100;-73
2023/02/16 03:01:44;;;;;;;12.63;5.25;;;;;;;2.39;69.80;101604.88;5030065;28;20096;-73
2023/02/16 03:04:13;;;;;;;15.05;4.65;;;;;;;2.46;69.78;101622.28;5029750;28;20049;-74
2023/02/16 03:06:44;;;;;;;15.23;4.68;;;;;;;2.46;70.25;101617.13;5030216;28;20049;-74
2023/02/16 03:09:14;;;;;;;14.30;5.47;;;;;;;2.48;69.44;101615.50;5031263;28;20079;-73
2023/02/16 03:14:32;;;;;;;13.55;4.90;;;;;;;2.46;69.80;101599.09;5025667;28;20112;-74
2023/02/16 03:30:55;;;;;;;13.52;4.55;;;;;;;2.51;69.60;101599.22;5028820;28;20052;-74
2023/02/16 03:33:23;;;;;;;15.65;4.70;;;;;;;2.51;69.61;101594.94;5025641;28;20049;-75
2023/02/16 03:35:51;;;;;;;13.60;5.15;;;;;;;2.50;70.19;101597.47;5030311;28;20052;-74
2023/02/16 03:38:18;;;;;;;15.68;5.00;;;;;;;2.52;69.59;101600.97;5028907;28;20049;-74
2023/02/16 03:40:48;;;;;;;17.92;4.90;;;;;;;2.49;69.97;101581.13;5025648;28;20405;-74
2023/02/16 03:43:14;;;;;;;14.98;5.05;;;;;;;2.51;69.63;101583.75;5028429;28;20138;-74
2023/02/16 03:45:43;;;;;;;12.75;5.07;;;;;;;2.53;69.69;101588.09;5022593;28;20402;-74
2023/02/16 03:48:12;;;;;;;15.38;5.35;;;;;;;2.45;70.13;101561.25;5027777;28;20068;-73
2023/02/16 03:50:39;;;;;;;11.05;4.45;;;;;;;2.54;69.75;101586.41;5030011;28;20045;-74
2023/02/16 03:53:08;;;;;;;15.93;5.35;;;;;;;2.55;70.13;101583.00;5030591;28;20049;-77
2023/02/16 03:55:38;;;;;;;17.65;5.50;;;;;;;2.48;69.98;101569.06;5031287;28;20054;-77
2023/02/16 03:58:06;;;;;;;19.80;6.18;;;;;;;2.56;69.54;101582.16;5031802;28;20054;-78
2023/02/16 04:00:35;;;;;;;11.00;4.43;;;;;;;2.56;69.81;101577.00;5030791;28;20052;-77
2023/02/16 04:03:02;;;;;;;15.43;4.45;;;;;;;2.48;69.75;101557.03;5031002;28;20059;-77
2023/02/16 04:05:30;;;;;;;13.18;5.15;;;;;;;2.57;70.27;101566.72;5030711;28;20052;-77
2023/02/16 04:07:57;;;;;;;13.30;4.97;;;;;;;2.57;70.08;101571.03;5030606;28;20928;-77
2023/02/16 04:10:25;;;;;;;11.77;5.13;;;;;;;2.54;70.10;101563.19;5032251;28;20061;-77
2023/02/16 04:12:50;;;;;;;12.85;5.05;;;;;;;2.57;70.07;101564.16;5029288;28;20045;-77
2023/02/16 04:15:20;;;;;;;15.00;4.60;;;;;;;2.57;69.65;101563.28;5031376;28;20075;-77
2023/02/16 04:17:47;;;;;;;13.20;4.93;;;;;;;2.58;69.63;101558.16;5030519;28;20145;-77
2023/02/16 04:20:17;;;;;;;14.63;4.78;;;;;;;2.55;70.09;101549.47;5029710;28;20124;-77
2023/02/16 04:22:46;;;;;;;14.43;4.93;;;;;;;2.60;70.09;101547.88;5024066;28;20046;-77
2023/02/16 04:25:13;;;;;;;16.40;5.65;;;;;;;2.60;70.00;101548.75;5030449;28;20049;-77
2023/02/16 04:27:40;;;;;;;12.30;3.80;;;;;;;2.60;70.25;101546.19;5031504;28;20056;-77
2023/02/16 04:30:11;;;;;;;15.35;5.10;;;;;;;2.61;70.46;101544.47;5030850;28;20045;-77
2023/02/16 04:32:37;;;;;;;14.45;5.07;;;;;;;2.60;70.13;101540.16;5028356;28;20051;-77
2023/02/16 04:35:05;;;;;;;16.77;5.53;;;;;;;2.62;70.16;101541.06;5030836;28;20060;-77
2023/02/16 04:37:32;;;;;;;12.73;4.70;;;;;;;2.62;70.06;101538.50;5033099;28;20497;-77
2023/02/16 04:40:00;;;;;;;12.43;4.47;;;;;;;2.61;69.61;101522.13;5035148;28;20041;-77
2023/02/16 04:42:27;;;;;;;15.02;5.00;;;;;;;2.63;69.72;101517.00;5033740;28;20048;-77
2023/02/16 04:44:54;;;;;;;15.27;4.45;;;;;;;2.59;70.12;101510.00;5034873;28;20044;-77
2023/02/16 04:47:24;;;;;;;14.85;4.80;;;;;;;2.60;69.75;101511.78;5033619;28;20071;-77
2023/02/16 04:49:51;;;;;;;12.60;4.50;;;;;;;2.51;70.23;101502.09;5034367;28;20057;-77
2023/02/16 04:52:18;;;;;;;13.38;4.80;;;;;;;2.63;70.09;101522.16;5027042;28;20049;-77
2023/02/16 04:54:46;;;;;;;14.45;5.68;;;;;;;2.63;69.90;101527.34;5028358;28;20052;-78
2023/02/16 04:57:14;;;;;;;10.77;4.47;;;;;;;2.63;69.54;101524.75;5035456;28;20413;-77
2023/02/16 04:59:41;;;;;;;17.13;4.32;;;;;;;2.62;69.66;101516.16;5033079;28;20056;-77
2023/02/16 05:02:08;;;;;;;12.02;4.38;;;;;;;2.63;69.68;101523.03;5037681;28;20049;-77
2023/02/16 05:04:35;;;;;;;11.20;3.88;;;;;;;2.59;70.04;101521.22;5033634;28;20494;-76
2023/02/16 05:07:02;;;;;;;14.68;4.72;;;;;;;2.64;70.31;101524.78;5031776;28;20046;-76
2023/02/16 05:09:29;;;;;;;12.35;4.00;;;;;;;2.63;70.44;101522.16;5030505;28;20048;-77
2023/02/16 05:14:41;;;;;;;10.63;4.00;;;;;;;2.64;69.52;101521.31;5030119;28;20111;-77
2023/02/16 05:17:09;;;;;;;11.98;4.57;;;;;;;2.63;69.77;101527.34;5025289;28;20048;-76
2023/02/16 05:19:36;;;;;;;13.82;4.78;;;;;;;2.63;69.89;101525.63;5028699;28;20133;-77
2023/02/16 05:22:04;;;;;;;15.10;4.30;;;;;;;2.63;69.56;101523.03;5027669;28;20437;-77
2023/02/16 05:24:31;;;;;;;12.23;4.60;;;;;;;2.64;69.86;101518.75;5022002;28;20124;-77
2023/02/16 05:26:58;;;;;;;15.68;4.97;;;;;;;2.64;69.83;101504.13;5030930;28;20053;-77
2023/02/16 05:29:25;;;;;;;14.65;5.53;;;;;;;2.65;69.63;101499.88;5031061;28;20055;-77
2023/02/16 05:31:53;;;;;;;11.05;4.63;;;;;;;2.65;70.05;101507.63;5030213;28;20047;-77
2023/02/16 05:34:20;;;;;;;13.77;4.78;;;;;;;2.63;70.01;101496.38;5031308;28;20052;-78
2023/02/16 05:36:47;;;;;;;14.70;5.35;;;;;;;2.64;69.65;101490.38;5028469;28;20064;-77
2023/02/16 05:39:14;;;;;;;11.90;3.78;;;;;;;2.65;69.97;101484.41;5032821;28;20045;-77
2023/02/16 05:41:41;;;;;;;10.02;4.00;;;;;;;2.62;70.41;101471.44;5030158;28;20045;-77
2023/02/16 05:44:09;;;;;;;10.75;3.85;;;;;;;2.63;69.86;101480.91;5027162;28;20508;-77
2023/02/16 05:46:38;;;;;;;16.65;4.18;;;;;;;2.60;69.94;101473.97;5028167;28;20045;-77
2023/02/16 05:49:08;;;;;;;10.50;4.47;;;;;;;2.62;70.39;101489.50;5031458;28;20077;-77
2023/02/16 05:51:35;;;;;;;9.30;2.95;;;;;;;2.62;69.80;101489.50;5032983;28;20053;-77
2023/02/16 05:54:02;;;;;;;9.63;3.78;;;;;;;2.61;69.97;101486.00;5028744;28;20042;-77
2023/02/16 05:56:29;;;;;;;9.27;4.07;;;;;;;2.59;70.41;101469.66;5032328;28;20371;-76
2023/02/16 05:58:58;;;;;;;7.22;3.15;;;;;;;2.60;70.39;101481.69;5031626;28;20060;-77
2023/02/16 06:01:25;;;;;;;9.40;3.40;;;;;;;2.59;70.20;101469.66;5033517;28;20045;-77
2023/02/16 06:03:52;;;;;;;9.93;5.03;;;;;;;2.60;70.37;101462.78;5031503;28;20055;-81
2023/02/16 06:06:20;;;;;;;11.13;3.65;;;;;;;2.59;70.20;101468.75;5028638;28;20045;-78
2023/02/16 06:08:47;;;;;;;8.45;3.45;;;;;;;2.59;69.96;101468.75;5024978;28;20053;-77
2023/02/16 06:14:01;;;;;;;8.98;4.13;;;;;;;2.57;69.85;101466.16;5020275;28;20608;-77
2023/02/16 06:16:29;;;;;;;7.25;3.42;;;;;;;2.57;70.61;101455.81;5030643;28;20049;-77
2023/02/16 06:18:57;;;;;;;8.38;3.10;;;;;;;2.56;69.86;101451.50;5031234;28;20052;-77
2023/02/16 06:21:27;;;;;;;6.85;3.45;;;;;;;2.49;70.24;101441.88;5032607;28;20041;-77
2023/02/16 06:23:54;;;;;;;10.43;4.30;;;;;;;2.55;69.90;101448.88;5030520;28;20051;-77
2023/02/16 06:26:21;;;;;;;7.57;3.03;;;;;;;2.56;70.10;101445.47;5034480;28;20041;-77
2023/02/16 06:28:48;;;;;;;7.65;3.45;;;;;;;2.53;70.52;101443.66;5022002;28;20046;-75
2023/02/16 06:31:15;;;;;;;7.32;3.60;;;;;;;2.56;70.30;101448.94;5029444;28;20524;-74
2023/02/16 06:33:43;;;;;;;10.77;3.40;;;;;;;2.55;70.55;101443.72;5031577;28;20432;-75
2023/02/16 06:36:10;;;;;;;6.18;2.90;;;;;;;2.53;70.42;101441.09;5029292;28;20571;-75
2023/02/16 06:38:38;;;;;;;9.25;3.25;;;;;;;2.57;70.37;101439.47;5030513;28;20163;-75
2023/02/16 06:41:06;;;;;;;6.80;2.58;;;;;;;2.53;70.04;101427.34;5030879;28;20053;-75
2023/02/16 06:43:33;;;;;;;4.10;1.95;;;;;;;2.55;69.80;101433.41;5029278;28;20050;-74
2023/02/16 06:46:00;;;;;;;7.72;2.40;;;;;;;2.56;69.75;101437.72;5031675;28;20049;-75
2023/02/16 06:48:26;;;;;;;8.75;2.33;;;;;;;2.55;70.53;101443.72;5028463;28;20041;-74
2023/02/16 06:50:53;;;;;;;8.00;3.88;;;;;;;2.55;69.83;101447.16;5032116;28;20053;-75
2023/02/16 06:53:20;;;;;;;4.88;2.47;;;;;;;2.56;70.23;101448.03;5029446;28;20058;-75
2023/02/16 06:55:50;;;;;;;5.05;2.20;;;;;;;2.54;70.37;101439.41;5032160;28;20091;-75
2023/02/16 06:58:17;;;;;;;7.53;2.63;;;;;;;2.53;70.14;101443.66;5031056;28;20045;-75
2023/02/16 07:00:44;;;;;;;6.53;3.08;;;;;;;2.53;70.36;101442.81;5031084;28;20041;-75
2023/02/16 07:03:11;;;;;;;5.85;2.10;;;;;;;2.53;70.75;101442.81;5031703;28;20100;-76
2023/02/16 07:05:38;;;;;;;3.50;1.92;;;;;;;2.52;70.14;101448.81;5027977;28;20049;-75
2023/02/16 07:08:05;;;;;;;4.85;2.08;;;;;;;2.53;70.54;101458.28;5030134;28;20049;-75
2023/02/16 07:10:32;;;;;;;4.13;2.00;;;;;;;2.52;70.05;101451.38;5031527;28;20521;-75
2023/02/16 07:13:00;;;;;;;7.10;1.60;;;;;;;2.52;70.10;101448.81;5031814;28;20132;-75
2023/02/16 07:15:27;;;;;;;4.32;1.88;;;;;;;2.50;70.23;101445.31;5030643;28;20050;-75
2023/02/16 07:17:54;;;;;;;10.20;2.33;;;;;;;2.51;70.07;101447.06;5031764;28;20436;-75
2023/02/16 07:20:21;;;;;;;5.57;1.67;;;;;;;2.51;70.76;101449.66;5031180;28;20050;-75
2023/02/16 07:22:48;;;;;;;5.78;1.80;;;;;;;2.51;70.73;101449.66;5030504;28;20052;-75
2023/02/16 07:25:15;;;;;;;4.20;2.10;;;;;;;2.51;70.40;101453.09;5030897;28;20497;-75
2023/02/16 07:27:42;;;;;;;4.72;1.75;;;;;;;2.49;70.20;101449.59;5031563;28;20055;-75
2023/02/16 07:30:12;;;;;;;6.20;2.00;;;;;;;2.51;70.77;101450.53;5030472;28;20120;-75
2023/02/16 07:32:38;;;;;;;5.53;2.33;;;;;;;2.51;70.51;101445.38;5030019;28;20543;-75
2023/02/16 07:35:06;;;;;;;6.72;2.25;;;;;;;2.51;70.89;101442.78;5031128;28;20056;-75
2023/02/16 07:37:33;;;;;;;3.92;1.58;;;;;;;2.51;70.28;101447.06;5031111;28;20176;-75
2023/02/16 07:40:00;;;;;;;6.35;2.00;;;;;;;2.50;70.42;101435.84;5029132;28;20045;-75
2023/02/16 07:42:30;;;;;;;7.15;2.42;;;;;;;2.50;70.34;101438.44;5031661;28;20537;-78
2023/02/16 07:44:57;;;;;;;8.68;2.20;;;;;;;2.51;70.45;101434.19;5032063;28;20560;-78
2023/02/16 07:47:26;;;;;;;4.38;1.85;;;;;;;2.52;70.58;101435.91;5030673;28;20067;-78
2023/02/16 07:49:52;;;;;;;8.15;2.33;;;;;;;2.52;71.26;101433.34;5028910;28;20041;-78
2023/02/16 07:52:19;;;;;;;6.97;2.13;;;;;;;2.48;70.44;101420.38;5025728;28;20128;-78
2023/02/16 07:54:46;;;;;;;6.53;2.20;;;;;;;2.54;70.88;101435.13;5025541;28;20049;-78
2023/02/16 07:57:13;;;;;;;6.90;2.63;;;;;;;2.55;70.90;101428.25;5031519;28;20494;-78
2023/02/16 07:59:40;;;;;;;6.50;2.40;;;;;;;2.55;70.50;101425.66;5032622;28;20053;-77
2023/02/16 08:02:14;;;;;;;10.05;3.67;;;;;;;2.48;70.67;101414.34;5031380;28;20095;-79
2023/02/16 08:04:42;;;;;;;9.63;3.47;;;;;;;2.56;70.59;101424.81;5032617;28;20481;-78
2023/02/16 08:07:12;;;;;;;5.70;2.22;;;;;;;2.56;70.80;101419.66;5032325;28;20049;-77
2023/02/16 08:09:39;;;;;;;6.45;2.22;;;;;;;2.57;71.11;101408.53;5026034;28;20045;-78
2023/02/16 08:12:09;;;;;;;7.70;2.65;;;;;;;2.58;71.35;101410.28;5030696;28;20052;-78
2023/02/16 08:14:37;;;;;;;6.10;2.47;;;;;;;2.58;70.71;101410.28;5032056;28;20045;-78
2023/02/16 08:17:04;;;;;;;5.90;2.03;;;;;;;2.57;70.72;101409.41;5028860;28;20049;-78
2023/02/16 08:19:31;;;;;;;5.05;2.05;;;;;;;2.60;70.93;101404.31;5031239;28;20053;-78
2023/02/16 08:22:01;;;;;;;6.25;2.58;;;;;;;2.62;71.54;101405.22;5032630;28;20076;-77
2023/02/16 08:24:28;;;;;;;5.03;1.75;;;;;;;2.64;71.37;101402.69;5033328;28;20077;-78
2023/02/16 08:26:56;;;;;;;8.50;2.20;;;;;;;2.62;71.45;101401.78;5030705;28;20049;-77
2023/02/16 08:29:24;;;;;;;7.57;2.92;;;;;;;2.63;71.35;101406.09;5030196;28;20047;-78
2023/02/16 08:31:51;;;;;;;7.53;2.22;;;;;;;2.63;71.56;101396.66;5032054;28;20133;-78
2023/02/16 08:34:20;;;;;;;4.38;1.83;;;;;;;2.65;71.38;101394.13;5032516;28;20056;-78
2023/02/16 08:36:51;;;;;;;7.25;2.30;;;;;;;2.70;71.53;101397.66;5032843;28;20079;-78
2023/02/16 08:39:21;;;;;;;5.50;2.72;;;;;;;2.69;71.08;101389.06;5031919;28;20429;-78
2023/02/16 08:41:50;;;;;;;6.28;2.30;;;;;;;2.73;71.27;101395.16;5030319;28;20451;-78
2023/02/16 08:44:18;;;;;;;6.75;2.40;;;;;;;2.69;70.88;101383.91;5031674;28;20059;-78
2023/02/16 08:46:46;;;;;;;10.07;3.85;;;;;;;2.75;71.45;101405.50;5032724;28;20049;-78
2023/02/16 08:49:16;;;;;;;6.28;2.70;;;;;;;2.76;71.83;101395.25;5032627;28;20052;-78
2023/02/16 08:51:45;;;;;;;8.32;2.83;;;;;;;2.76;71.53;101394.34;5031249;28;20152;-79
2023/02/16 08:54:17;;;;;;;7.53;2.42;;;;;;;2.79;71.62;101395.31;5028294;28;20049;-78
2023/02/16 08:56:46;;;;;;;6.03;2.38;;;;;;;2.70;71.50;101374.44;5027840;28;20060;-78
2023/02/16 08:59:15;;;;;;;7.10;2.35;;;;;;;2.82;71.69;101390.22;5026401;28;20132;-79
2023/02/16 09:01:42;;;;;;;7.03;2.97;;;;;;;2.83;71.70;101391.09;5031065;28;20045;-79
2023/02/16 09:04:10;;;;;;;9.95;3.08;;;;;;;2.83;71.46;101381.63;5030944;28;20161;-79
2023/02/16 09:06:38;;;;;;;7.53;3.63;;;;;;;2.87;71.23;101387.72;5031880;28;20060;-78
2023/02/16 09:09:07;;;;;;;7.85;3.42;;;;;;;2.87;71.91;101388.59;5029604;28;20045;-79
2023/02/16 09:11:35;;;;;;;8.60;2.83;;;;;;;2.85;71.48;101379.97;5028067;28;20466;-79
2023/02/16 09:14:05;;;;;;;11.88;4.07;;;;;;;2.90;71.87;101383.53;5030761;28;20052;-79
2023/02/16 09:16:34;;;;;;;9.45;3.45;;;;;;;2.91;71.67;101374.06;5031214;28;20050;-79
2023/02/16 09:19:01;;;;;;;9.68;4.13;;;;;;;2.79;71.65;101353.13;5027996;28;20045;-79
2023/02/16 09:21:31;;;;;;;8.90;3.55;;;;;;;2.94;71.66;101374.16;5030720;28;20088;-80
2023/02/16 09:24:00;;;;;;;11.45;3.45;;;;;;;2.96;72.07;101372.47;5034643;28;20077;-79
2023/02/16 09:26:30;;;;;;;11.55;4.25;;;;;;;2.96;71.67;101367.31;5033904;28;20050;-79
2023/02/16 09:28:57;;;;;;;16.00;5.32;;;;;;;2.99;71.78;101351.00;5026956;28;20060;-79
2023/02/16 09:31:29;;;;;;;9.10;3.47;;;;;;;3.00;71.65;101347.59;5034669;28;20060;-79
2023/02/16 09:34:00;;;;;;;12.55;4.53;;;;;;;3.02;71.93;101351.09;5034510;28;20089;-79
2023/02/16 09:36:27;;;;;;;11.25;4.40;;;;;;;3.02;71.56;101346.81;5030605;28;20045;-79
2023/02/16 09:38:55;;;;;;;13.77;5.20;;;;;;;3.05;72.14;101341.69;5029355;28;20140;-79
2023/02/16 09:41:53;;;;;;;13.45;4.10;;;;;;;3.06;72.00;101335.69;5031761;28;20052;-79
2023/02/16 09:44:30;;;;;;;12.25;5.18;;;;;;;3.09;71.44;101343.50;5034441;28;20056;-79
2023/02/16 09:47:02;;;;;;;12.65;4.47;;;;;;;3.10;71.65;101337.50;5029265;28;20056;-79
2023/02/16 09:49:33;;;;;;;11.88;4.72;;;;;;;3.14;72.35;101335.84;5032727;28;20309;-78
2023/02/16 09:52:09;;;;;;;12.80;4.55;;;;;;;3.17;71.71;101343.66;5017359;28;20058;-79
2023/02/16 09:54:42;;;;;;;16.33;5.90;;;;;;;3.07;71.86;101313.31;5023137;28;20056;-79
2023/02/16 09:57:18;;;;;;;12.45;4.90;;;;;;;3.22;72.11;101331.72;5033823;28;20413;-79
2023/02/16 09:59:54;;;;;;;11.35;4.85;;;;;;;3.25;71.73;101329.22;5034980;28;20049;-79
2023/02/16 10:02:40;;;;;;;18.02;5.43;;;;;;;3.29;71.62;101331.00;5025089;28;20052;-78
2023/02/16 10:05:19;;;;;;;13.43;4.70;;;;;;;3.32;71.71;101322.44;5029619;28;20124;-79
2023/02/16 10:07:57;;;;;;;10.27;4.22;;;;;;;3.33;71.84;101324.19;5027279;28;20049;-79
2023/02/16 10:10:28;;;;;;;13.93;4.55;;;;;;;3.38;72.20;101326.00;5031727;28;20038;-79
2023/02/16 10:12:58;;;;;;;11.93;5.18;;;;;;;3.32;71.84;101304.38;5033804;28;20500;-79
2023/02/16 10:15:29;;;;;;;14.65;5.68;;;;;;;3.44;72.15;101325.25;5034154;28;20052;-79
2023/02/16 10:18:01;;;;;;;13.68;5.57;;;;;;;3.46;71.81;101313.25;5035327;28;20396;-79
2023/02/16 10:20:33;;;;;;;12.80;6.00;;;;;;;3.49;71.83;101322.78;5039189;28;20057;-79
2023/02/16 10:23:10;;;;;;;9.15;4.45;;;;;;;3.49;71.38;101307.28;5032723;28;20057;-78
2023/02/16 10:25:43;;;;;;;16.40;5.47;;;;;;;3.53;71.82;101306.47;5030335;28;20077;-79
2023/02/16 10:28:16;;;;;;;14.98;6.65;;;;;;;3.55;71.70;101294.47;5033436;28;20052;-79
2023/02/16 10:30:50;;;;;;;17.52;6.43;;;;;;;3.58;71.62;101299.69;5025239;28;20045;-79
2023/02/16 10:33:30;;;;;;;14.35;6.18;;;;;;;3.59;71.67;101291.13;5033622;28;20049;-79
2023/02/16 10:36:03;;;;;;;11.15;5.03;;;;;;;3.63;71.50;101300.66;5034776;28;20498;-79
2023/02/16 10:38:38;;;;;;;16.98;6.40;;;;;;;3.65;71.27;101293.81;5031344;28;20049;-77
2023/02/16 10:41:17;;;;;;;14.10;5.63;;;;;;;3.68;71.69;101287.84;5030155;28;20045;-79
2023/02/16 10:43:47;;;;;;;16.13;5.78;;;;;;;3.68;71.09;101291.28;5034068;28;20045;-79
2023/02/16 10:46:21;;;;;;;21.27;7.22;;;;;;;3.71;71.41;101286.16;5032609;28;20058;-79
2023/02/16 10:48:53;;;;;;;20.55;6.47;;;;;;;3.73;71.28;101292.25;5033794;28;20059;-80
2023/02/16 10:51:26;;;;;;;17.48;6.22;;;;;;;3.76;71.49;101276.78;5034583;28;20049;-80
2023/02/16 10:53:57;;;;;;;14.43;6.53;;;;;;;3.75;71.29;101280.19;5034509;28;20037;-80
2023/02/16 10:56:37;;;;;;;17.65;7.03;;;;;;;3.80;71.55;101278.56;5035198;28;20057;-80
2023/02/16 10:59:07;;;;;;;18.50;7.15;;;;;;;3.83;70.90;101286.38;5034904;28;20052;-80
2023/02/16 11:01:38;;;;;;;21.25;8.13;;;;;;;3.86;71.20;101279.53;5032332;28;20053;-81
2023/02/16 11:04:07;;;;;;;18.73;8.23;;;;;;;3.88;71.14;101275.25;5033156;28;20050;-80
2023/02/16 11:06:34;;;;;;;20.88;8.40;;;;;;;3.89;71.25;101269.25;5028355;28;20049;-75
2023/02/16 11:09:03;;;;;;;20.83;9.00;;;;;;;3.92;71.46;101264.97;5031460;28;20049;-75
2023/02/16 11:11:35;;;;;;;19.00;8.32;;;;;;;3.83;71.51;101252.78;5031072;28;20049;-76
2023/02/16 11:14:04;;;;;;;18.52;7.38;;;;;;;3.91;71.26;101257.22;5031332;28;20448;-75
2023/02/16 11:16:32;;;;;;;22.45;8.30;;;;;;;3.98;71.27;101265.06;5029657;28;20486;-76
2023/02/16 11:19:01;;;;;;;19.85;7.95;;;;;;;4.01;71.02;101264.25;5031036;28;20107;-76
2023/02/16 11:21:47;;;;;;;18.30;7.93;;;;;;;4.04;71.27;101266.88;5031471;28;20111;-75
2023/02/16 11:24:25;;;;;;;16.08;7.53;;;;;;;4.06;70.85;101260.03;5031130;28;20049;-76
2023/02/16 11:27:02;;;;;;;17.20;7.45;;;;;;;4.08;70.82;101263.53;5030726;28;20041;-76
2023/02/16 11:29:29;;;;;;;21.13;8.35;;;;;;;4.09;71.01;101259.22;5030589;28;20049;-76
2023/02/16 11:31:57;;;;;;;23.77;9.52;;;;;;;4.11;71.09;101263.56;5032381;28;20486;-75
2023/02/16 11:34:32;;;;;;;24.33;9.45;;;;;;;4.11;70.73;101253.22;5030309;28;20161;-75
2023/02/16 11:37:07;;;;;;;26.02;9.82;;;;;;;4.15;71.15;101249.84;5031612;28;20045;-76
2023/02/16 11:39:39;;;;;;;19.83;7.95;;;;;;;4.17;71.06;101248.16;5029670;28;20755;-75
2023/02/16 11:42:09;;;;;;;22.85;8.48;;;;;;;4.18;70.93;101255.06;5026375;28;20405;-76
2023/02/16 11:44:39;;;;;;;22.73;8.77;;;;;;;4.22;70.81;101256.84;5025544;28;20492;-76
2023/02/16 11:47:09;;;;;;;23.70;9.15;;;;;;;4.24;71.43;101265.50;5027687;28;20424;-75
2023/02/16 11:49:37;;;;;;;23.88;9.50;;;;;;;4.27;70.96;101262.97;5027425;28;20050;-76
2023/02/16 11:52:29;;;;;;;26.35;8.10;;;;;;;4.29;70.65;101250.91;5028733;28;20099;-75
2023/02/16 11:54:59;;;;;;;20.10;8.18;;;;;;;4.29;70.60;101243.16;5028777;28;20150;-75
2023/02/16 11:57:28;;;;;;;21.20;8.63;;;;;;;4.33;70.95;101261.34;5028601;28;20050;-74
2023/02/16 11:59:56;;;;;;;26.95;10.23;;;;;;;4.35;71.01;101251.84;5028543;28;20049;-76
2023/02/16 12:03:05;;;;;;;26.20;10.18;;;;;;;4.37;70.80;101245.84;5030002;28;20063;-76
2023/02/16 12:05:46;;;;;;;25.65;9.15;;;;;;;4.39;70.75;101249.34;5026715;28;20046;-76
2023/02/16 12:08:30;;;;;;;24.35;8.32;;;;;;;4.42;70.90;101245.94;5027176;28;20037;-75
2023/02/16 12:11:11;;;;;;;25.67;10.27;;;;;;;4.44;70.61;101244.22;5024499;28;20045;-76
2023/02/16 12:13:48;;;;;;;21.88;8.00;;;;;;;4.47;70.62;101246.88;5020851;28;20053;-75
2023/02/16 12:16:27;;;;;;;18.58;8.18;;;;;;;4.50;70.76;101241.75;5026433;28;20042;-76
2023/02/16 12:19:07;;;;;;;21.30;9.15;;;;;;;4.50;70.62;101234.84;5026810;28;20048;-75
2023/02/16 12:21:41;;;;;;;21.30;8.38;;;;;;;4.51;70.72;101228.81;5024936;28;20055;-76